Portada
METAR-TAF:

METAR-TAF

Aeroports :

Fitchburg, Massachusetts, Estats Units d'Amèrica

latitud: 42-33-07N, longitud: 071-45-21W, altitud: 106 m

Observació

L'informe es va fer fa 27 minuts, a les 09:52 UTC
Vent 4 kt del Nord-Oest
Temperatura 19°C
Humitat 64%
Pressió 1013 hPa
Visibilitat: 16.1 km
Cel cobert a una alçada de 2200 ft

METAR: KFIT 190952Z AUTO 31004KT 10SM OVC022 19/12 A2992 RMK AO2 SLP130 T01940117

Hora: 06:19 (10:19 UTC)


TAF: manca

Observacions i pronòstics meteorològics de més de 4000 aeroports (METAR i TAF).

Les estacions disponibles són els punts grocs i vermells al mapa.

Posi el ratolí al punt desitjat per veure el nom de l'estació.

Feu clic per veure les observacions i els pronòstics meteorològics.

Per canviar el mapa: feu clic els botons verds amb una creu de color negre per apropar; al botó verd amb un guió per allunyar la imatge; o en les fletxes verdes per a mapes adjacents.


METAR-TAF: